Ana Sayfa
METAR-TAF:

METAR-TAF

Havaalanları :

Shenzhen Bao'an Uluslararası Havalimanı

Shenzhen, Çin

Enlem: 22-33N, Boylam: 114-06E, yükseklik: 18 m

Güncel hava durumu gözlemi

Rapor saat 10:00 UTC de 24 dakika önce yapıldı.
Rüzgar güneydan 4 kt
Sıcaklık 19°C
Nem 60%
Basınç 1020 hPa
Görüş mesafesi 10 km veya daha fazla
5000 ft yükseklikte parçalı bulutlu

METAR: ZGSZ 121000Z 17002MPS 9999 SCT050 19/11 Q1020 NOSIG

Saat: 18:24 (10:24 UTC)

Tahmin

Rapor saat 03:25 UTC de 6 saat ve 59 dakika önce yapıldı.
Ayın 12'si saat 06 UTC'den ayın 13'si saat 06 UTC'ye kadar geçerli Tahmin
Rüzgar güney/güneybatıdan 8 kt
Görüş mesafesi: 8000 m
4000 ft yükseklikte az bulutlu
Dönüşüyor
ayın 12'si saat 11 UTC'den ayın 12'si saat 12 UTC'ye kadar
Rüzgar doğu/güneydoğudan 8 kt

TAF: ZGSZ 120325Z 1206/1306 21004MPS 8000 FEW040 TX24/1207Z TN14/1222Z BECMG 1211/1212 11004MPS

4.000'den fazla havaalanı için hava durumu gözlemleri ve tahminleri (METAR ve TAF raporları).

Kullanılabilir istasyonlar harita üzerinde sarı ve kırmızı noktalarla gösterilir.

İstasyonun adını görmek için fareyi noktanın üzerinde gezdirin.

Sonrasında hava gözlem ve tahminlerini görmek için tıklayın.

Haritayı değiştirmek için: yaklaştırmak için siyah artı işaretli yeşil düğmeye ve uzaklaştırmak için de eksi işaretli düğmeye hızla tıklayın; bitişik haritalar için yeşil okları kullanın.


METAR-TAF: